sensor_id;sensor_type;location;lat;lon;timestamp;pressure;altitude;pressure_sealevel;temperature;humidity
48796;BME280;34607;48.520;-1.330;2022-10-16T00:01:07;99674.91;;;13.80;100.00
48796;BME280;34607;48.520;-1.330;2022-10-16T00:03:35;99667.97;;;13.79;100.00
48796;BME280;34607;48.520;-1.330;2022-10-16T00:06:03;99658.47;;;13.74;100.00
48796;BME280;34607;48.520;-1.330;2022-10-16T00:08:31;99664.47;;;13.85;100.00
48796;BME280;34607;48.520;-1.330;2022-10-16T00:11:02;99671.38;;;13.88;100.00
48796;BME280;34607;48.520;-1.330;2022-10-16T00:13:30;99670.50;;;13.90;100.00
48796;BME280;34607;48.520;-1.330;2022-10-16T00:15:58;99682.66;;;13.88;100.00
48796;BME280;34607;48.520;-1.330;2022-10-16T00:18:26;99680.94;;;13.87;100.00
48796;BME280;34607;48.520;-1.330;2022-10-16T00:20:55;99678.31;;;13.89;100.00
48796;BME280;34607;48.520;-1.330;2022-10-16T00:23:22;99680.09;;;13.82;100.00
48796;BME280;34607;48.520;-1.330;2022-10-16T00:25:55;99681.78;;;13.86;100.00
48796;BME280;34607;48.520;-1.330;2022-10-16T00:28:23;99678.31;;;13.90;100.00
48796;BME280;34607;48.520;-1.330;2022-10-16T00:30:50;99677.41;;;13.91;100.00
48796;BME280;34607;48.520;-1.330;2022-10-16T00:33:17;99686.97;;;13.89;100.00
48796;BME280;34607;48.520;-1.330;2022-10-16T00:35:44;99679.13;;;13.97;100.00
48796;BME280;34607;48.520;-1.330;2022-10-16T00:38:13;99681.66;;;14.03;100.00
48796;BME280;34607;48.520;-1.330;2022-10-16T00:40:40;99682.59;;;13.93;100.00
48796;BME280;34607;48.520;-1.330;2022-10-16T00:43:12;99668.00;;;13.76;100.00
48796;BME280;34607;48.520;-1.330;2022-10-16T00:45:40;99674.81;;;13.91;100.00
48796;BME280;34607;48.520;-1.330;2022-10-16T00:48:11;99683.47;;;13.95;100.00
48796;BME280;34607;48.520;-1.330;2022-10-16T00:50:40;99695.63;;;13.94;100.00
48796;BME280;34607;48.520;-1.330;2022-10-16T00:53:10;99691.31;;;13.90;100.00
48796;BME280;34607;48.520;-1.330;2022-10-16T00:55:39;99698.22;;;13.94;100.00
48796;BME280;34607;48.520;-1.330;2022-10-16T00:58:06;99690.41;;;13.96;100.00
48796;BME280;34607;48.520;-1.330;2022-10-16T01:00:33;99692.16;;;13.94;100.00
48796;BME280;34607;48.520;-1.330;2022-10-16T01:03:03;99695.63;;;13.94;100.00
48796;BME280;34607;48.520;-1.330;2022-10-16T01:05:33;99692.25;;;13.83;100.00
48796;BME280;34607;48.520;-1.330;2022-10-16T01:08:06;99697.38;;;13.91;100.00
48796;BME280;34607;48.520;-1.330;2022-10-16T01:10:40;99692.25;;;13.83;100.00
48796;BME280;34607;48.520;-1.330;2022-10-16T01:13:11;99693.13;;;13.79;100.00
48796;BME280;34607;48.520;-1.330;2022-10-16T01:15:47;99692.31;;;13.71;100.00
48796;BME280;34607;48.520;-1.330;2022-10-16T01:18:22;99696.66;;;13.75;100.00
48796;BME280;34607;48.520;-1.330;2022-10-16T01:20:54;99696.66;;;13.72;100.00
48796;BME280;34607;48.520;-1.330;2022-10-16T01:23:30;99694.94;;;13.69;100.00
48796;BME280;34607;48.520;-1.330;2022-10-16T01:26:15;99701.00;;;13.73;100.00
48796;BME280;34607;48.520;-1.330;2022-10-16T01:28:52;99681.09;;;13.64;100.00
48796;BME280;34607;48.520;-1.330;2022-10-16T01:31:24;99693.22;;;13.66;100.00
48796;BME280;34607;48.520;-1.330;2022-10-16T01:33:57;99695.00;;;13.58;100.00
48796;BME280;34607;48.520;-1.330;2022-10-16T01:36:28;99701.06;;;13.60;100.00
48796;BME280;34607;48.520;-1.330;2022-10-16T01:39:00;99714.06;;;13.62;100.00
48796;BME280;34607;48.520;-1.330;2022-10-16T01:41:32;99706.25;;;13.65;100.00
48796;BME280;34607;48.520;-1.330;2022-10-16T01:44:05;99713.19;;;13.64;100.00
48796;BME280;34607;48.520;-1.330;2022-10-16T01:46:36;99708.81;;;13.68;100.00
48796;BME280;34607;48.520;-1.330;2022-10-16T01:49:05;99719.22;;;13.73;100.00
48796;BME280;34607;48.520;-1.330;2022-10-16T01:51:33;99716.66;;;13.65;100.00
48796;BME280;34607;48.520;-1.330;2022-10-16T01:54:02;99714.91;;;13.64;100.00
48796;BME280;34607;48.520;-1.330;2022-10-16T01:56:32;99718.41;;;13.64;100.00
48796;BME280;34607;48.520;-1.330;2022-10-16T01:59:05;99715.78;;;13.64;100.00
48796;BME280;34607;48.520;-1.330;2022-10-16T02:01:35;99721.84;;;13.63;100.00
48796;BME280;34607;48.520;-1.330;2022-10-16T02:04:08;99720.09;;;13.67;100.00
48796;BME280;34607;48.520;-1.330;2022-10-16T02:06:35;99721.88;;;13.60;100.00
48796;BME280;34607;48.520;-1.330;2022-10-16T02:09:03;99721.84;;;13.65;100.00
48796;BME280;34607;48.520;-1.330;2022-10-16T02:11:30;99727.06;;;13.65;100.00
48796;BME280;34607;48.520;-1.330;2022-10-16T02:14:00;99721.00;;;13.64;100.00
48796;BME280;34607;48.520;-1.330;2022-10-16T02:16:35;99723.53;;;13.69;100.00
48796;BME280;34607;48.520;-1.330;2022-10-16T02:19:03;99727.03;;;13.73;100.00
48796;BME280;34607;48.520;-1.330;2022-10-16T02:21:35;99723.53;;;13.75;100.00
48796;BME280;34607;48.520;-1.330;2022-10-16T02:24:08;99727.88;;;13.70;100.00
48796;BME280;34607;48.520;-1.330;2022-10-16T02:26:42;99703.66;;;13.62;100.00
48796;BME280;34607;48.520;-1.330;2022-10-16T02:29:12;99735.59;;;13.85;100.00
48796;BME280;34607;48.520;-1.330;2022-10-16T02:31:46;99739.97;;;13.79;100.00
48796;BME280;34607;48.520;-1.330;2022-10-16T02:34:16;99725.19;;;13.85;100.00
48796;BME280;34607;48.520;-1.330;2022-10-16T02:36:46;99720.00;;;13.79;100.00
48796;BME280;34607;48.520;-1.330;2022-10-16T02:39:14;99714.78;;;13.81;100.00
48796;BME280;34607;48.520;-1.330;2022-10-16T02:41:42;99710.41;;;13.88;100.00
48796;BME280;34607;48.520;-1.330;2022-10-16T02:44:09;99718.22;;;13.91;100.00
48796;BME280;34607;48.520;-1.330;2022-10-16T02:46:36;99713.06;;;13.83;100.00
48796;BME280;34607;48.520;-1.330;2022-10-16T02:49:05;99713.91;;;13.85;100.00
48796;BME280;34607;48.520;-1.330;2022-10-16T02:51:32;99721.75;;;13.82;100.00
48796;BME280;34607;48.520;-1.330;2022-10-16T02:53:59;99730.38;;;13.90;100.00
48796;BME280;34607;48.520;-1.330;2022-10-16T02:56:26;99724.31;;;13.88;100.00
48796;BME280;34607;48.520;-1.330;2022-10-16T02:58:53;99723.41;;;13.89;100.00
48796;BME280;34607;48.520;-1.330;2022-10-16T03:01:20;99726.03;;;13.88;100.00
48796;BME280;34607;48.520;-1.330;2022-10-16T03:03:47;99732.91;;;13.96;100.00
48796;BME280;34607;48.520;-1.330;2022-10-16T03:06:16;99734.63;;;14.00;100.00
48796;BME280;34607;48.520;-1.330;2022-10-16T03:08:43;99742.41;;;14.03;100.00
48796;BME280;34607;48.520;-1.330;2022-10-16T03:11:10;99740.66;;;14.04;100.00
48796;BME280;34607;48.520;-1.330;2022-10-16T03:13:37;99739.75;;;14.10;100.00
48796;BME280;34607;48.520;-1.330;2022-10-16T03:16:04;99731.09;;;14.09;100.00
48796;BME280;34607;48.520;-1.330;2022-10-16T03:18:31;99728.50;;;14.08;100.00
48796;BME280;34607;48.520;-1.330;2022-10-16T03:20:58;99728.47;;;14.11;100.00
48796;BME280;34607;48.520;-1.330;2022-10-16T03:23:27;99722.41;;;14.09;100.00
48796;BME280;34607;48.520;-1.330;2022-10-16T03:25:54;99727.66;;;14.05;100.00
48796;BME280;34607;48.520;-1.330;2022-10-16T03:28:21;99725.91;;;14.04;100.00
48796;BME280;34607;48.520;-1.330;2022-10-16T03:30:48;99722.41;;;14.09;100.00
48796;BME280;34607;48.520;-1.330;2022-10-16T03:33:15;99731.94;;;14.08;100.00
48796;BME280;34607;48.520;-1.330;2022-10-16T03:35:42;99717.16;;;14.12;100.00
48796;BME280;34607;48.520;-1.330;2022-10-16T03:38:09;99727.56;;;14.15;100.00
48796;BME280;34607;48.520;-1.330;2022-10-16T03:40:38;99732.78;;;14.12;100.00
48796;BME280;34607;48.520;-1.330;2022-10-16T03:43:05;99737.16;;;14.10;100.00
48796;BME280;34607;48.520;-1.330;2022-10-16T03:45:32;99729.41;;;14.03;100.00
48796;BME280;34607;48.520;-1.330;2022-10-16T03:47:59;99731.13;;;14.03;100.00
48796;BME280;34607;48.520;-1.330;2022-10-16T03:50:26;99735.47;;;14.02;100.00
48796;BME280;34607;48.520;-1.330;2022-10-16T03:52:53;99744.97;;;14.07;100.00
48796;BME280;34607;48.520;-1.330;2022-10-16T03:55:20;99738.06;;;14.07;100.00
48796;BME280;34607;48.520;-1.330;2022-10-16T03:57:48;99741.53;;;14.01;100.00
48796;BME280;34607;48.520;-1.330;2022-10-16T04:00:15;99746.75;;;14.00;100.00
48796;BME280;34607;48.520;-1.330;2022-10-16T04:02:42;99749.34;;;14.01;100.00
48796;BME280;34607;48.520;-1.330;2022-10-16T04:05:09;99747.63;;;14.02;100.00
48796;BME280;34607;48.520;-1.330;2022-10-16T04:07:36;99751.09;;;13.99;100.00
48796;BME280;34607;48.520;-1.330;2022-10-16T04:10:04;99751.94;;;14.04;100.00
48796;BME280;34607;48.520;-1.330;2022-10-16T04:12:31;99756.28;;;14.07;100.00
48796;BME280;34607;48.520;-1.330;2022-10-16T04:15:00;99754.56;;;14.03;100.00
48796;BME280;34607;48.520;-1.330;2022-10-16T04:17:27;99751.94;;;14.01;100.00
48796;BME280;34607;48.520;-1.330;2022-10-16T04:19:54;99745.91;;;13.98;100.00
48796;BME280;34607;48.520;-1.330;2022-10-16T04:22:21;99744.22;;;13.94;100.00
48796;BME280;34607;48.520;-1.330;2022-10-16T04:24:48;99750.28;;;13.90;100.00
48796;BME280;34607;48.520;-1.330;2022-10-16T04:27:16;99739.03;;;13.91;100.00
48796;BME280;34607;48.520;-1.330;2022-10-16T04:29:43;99746.84;;;13.86;100.00
48796;BME280;34607;48.520;-1.330;2022-10-16T04:32:11;99752.09;;;13.83;100.00
48796;BME280;34607;48.520;-1.330;2022-10-16T04:34:39;99759.03;;;13.81;100.00
48796;BME280;34607;48.520;-1.330;2022-10-16T04:37:06;99762.53;;;13.80;100.00
48796;BME280;34607;48.520;-1.330;2022-10-16T04:39:33;99761.69;;;13.76;100.00
48796;BME280;34607;48.520;-1.330;2022-10-16T04:42:00;99754.72;;;13.78;100.00
48796;BME280;34607;48.520;-1.330;2022-10-16T04:44:28;99747.84;;;13.73;100.00
48796;BME280;34607;48.520;-1.330;2022-10-16T04:46:55;99764.25;;;13.81;100.00
48796;BME280;34607;48.520;-1.330;2022-10-16T04:49:23;99756.41;;;13.87;100.00
48796;BME280;34607;48.520;-1.330;2022-10-16T04:51:50;99756.41;;;13.84;100.00
48796;BME280;34607;48.520;-1.330;2022-10-16T04:54:17;99756.41;;;13.87;100.00
48796;BME280;34607;48.520;-1.330;2022-10-16T04:56:44;99762.47;;;13.86;100.00
48796;BME280;34607;48.520;-1.330;2022-10-16T04:59:13;99766.84;;;13.84;100.00
48796;BME280;34607;48.520;-1.330;2022-10-16T05:01:41;99743.38;;;13.87;100.00
48796;BME280;34607;48.520;-1.330;2022-10-16T05:04:08;99749.47;;;13.84;100.00
48796;BME280;34607;48.520;-1.330;2022-10-16T05:06:37;99745.06;;;13.94;100.00
48796;BME280;34607;48.520;-1.330;2022-10-16T05:09:05;99758.94;;;13.96;100.00
48796;BME280;34607;48.520;-1.330;2022-10-16T05:11:32;99766.75;;;13.95;100.00
48796;BME280;34607;48.520;-1.330;2022-10-16T05:14:00;99768.47;;;13.99;100.00
48796;BME280;34607;48.520;-1.330;2022-10-16T05:16:27;99775.34;;;14.06;100.00
48796;BME280;34607;48.520;-1.330;2022-10-16T05:18:54;99776.22;;;14.07;100.00
48796;BME280;34607;48.520;-1.330;2022-10-16T05:21:22;99776.28;;;13.97;100.00
48796;BME280;34607;48.520;-1.330;2022-10-16T05:23:50;99781.50;;;13.99;100.00
48796;BME280;34607;48.520;-1.330;2022-10-16T05:26:19;99789.31;;;13.97;100.00
48796;BME280;34607;48.520;-1.330;2022-10-16T05:28:46;99791.00;;;14.01;100.00
48796;BME280;34607;48.520;-1.330;2022-10-16T05:31:13;99799.66;;;14.07;100.00
48796;BME280;34607;48.520;-1.330;2022-10-16T05:33:40;99802.25;;;14.05;100.00
48796;BME280;34607;48.520;-1.330;2022-10-16T05:36:09;99795.34;;;14.05;100.00
48796;BME280;34607;48.520;-1.330;2022-10-16T05:38:37;99797.91;;;14.09;100.00
48796;BME280;34607;48.520;-1.330;2022-10-16T05:41:05;99797.94;;;14.07;100.00
48796;BME280;34607;48.520;-1.330;2022-10-16T05:43:32;99797.94;;;14.07;100.00
48796;BME280;34607;48.520;-1.330;2022-10-16T05:46:02;99803.97;;;14.09;100.00
48796;BME280;34607;48.520;-1.330;2022-10-16T05:48:30;99805.75;;;14.05;100.00
48796;BME280;34607;48.520;-1.330;2022-10-16T05:50:58;99785.72;;;14.14;100.00
48796;BME280;34607;48.520;-1.330;2022-10-16T05:53:27;99786.59;;;14.16;100.00
48796;BME280;34607;48.520;-1.330;2022-10-16T05:55:55;99792.63;;;14.19;100.00
48796;BME280;34607;48.520;-1.330;2022-10-16T05:58:25;99774.44;;;14.12;100.00
48796;BME280;34607;48.520;-1.330;2022-10-16T06:00:55;99779.63;;;14.18;100.00
48796;BME280;34607;48.520;-1.330;2022-10-16T06:03:23;99779.72;;;14.05;100.00
48796;BME280;34607;48.520;-1.330;2022-10-16T06:05:50;99784.94;;;14.04;100.00
48796;BME280;34607;48.520;-1.330;2022-10-16T06:08:18;99767.63;;;13.95;100.00
48796;BME280;34607;48.520;-1.330;2022-10-16T06:10:46;99792.72;;;14.07;100.00
48796;BME280;34607;48.520;-1.330;2022-10-16T06:13:13;99790.09;;;14.09;100.00
48796;BME280;34607;48.520;-1.330;2022-10-16T06:15:42;99784.06;;;14.03;100.00
48796;BME280;34607;48.520;-1.330;2022-10-16T06:18:09;99786.66;;;14.03;100.00
48796;BME280;34607;48.520;-1.330;2022-10-16T06:20:37;99790.13;;;14.05;100.00
48796;BME280;34607;48.520;-1.330;2022-10-16T06:23:04;99794.41;;;14.13;100.00
48796;BME280;34607;48.520;-1.330;2022-10-16T06:25:31;99790.06;;;14.13;100.00
48796;BME280;34607;48.520;-1.330;2022-10-16T06:27:59;99789.22;;;14.11;100.00
48796;BME280;34607;48.520;-1.330;2022-10-16T06:30:26;99792.63;;;14.16;100.00
48796;BME280;34607;48.520;-1.330;2022-10-16T06:32:54;99790.84;;;14.24;100.00
48796;BME280;34607;48.520;-1.330;2022-10-16T06:35:21;99784.72;;;14.30;100.00
48796;BME280;34607;48.520;-1.330;2022-10-16T06:37:49;99787.28;;;14.36;100.00
48796;BME280;34607;48.520;-1.330;2022-10-16T06:40:16;99795.91;;;14.43;100.00
48796;BME280;34607;48.520;-1.330;2022-10-16T06:42:43;99791.59;;;14.37;100.00
48796;BME280;34607;48.520;-1.330;2022-10-16T06:45:10;99794.22;;;14.36;100.00
48796;BME280;34607;48.520;-1.330;2022-10-16T06:47:38;99785.66;;;14.20;100.00
48796;BME280;34607;48.520;-1.330;2022-10-16T06:50:07;99758.91;;;14.02;100.00
48796;BME280;34607;48.520;-1.330;2022-10-16T06:52:34;99777.13;;;14.02;100.00
48796;BME280;34607;48.520;-1.330;2022-10-16T06:55:01;99782.34;;;13.98;100.00
48796;BME280;34607;48.520;-1.330;2022-10-16T06:57:29;99776.28;;;13.96;100.00
48796;BME280;34607;48.520;-1.330;2022-10-16T06:59:56;99775.34;;;14.06;100.00
48796;BME280;34607;48.520;-1.330;2022-10-16T07:02:23;99772.75;;;14.04;100.00
48796;BME280;34607;48.520;-1.330;2022-10-16T07:04:50;99774.50;;;14.04;100.00
48796;BME280;34607;48.520;-1.330;2022-10-16T07:07:18;99785.84;;;13.95;100.00
48796;BME280;34607;48.520;-1.330;2022-10-16T07:09:45;99799.72;;;13.99;100.00
48796;BME280;34607;48.520;-1.330;2022-10-16T07:12:12;99740.06;;;13.68;100.00
48796;BME280;34607;48.520;-1.330;2022-10-16T07:14:40;99802.28;;;14.03;100.00
48796;BME280;34607;48.520;-1.330;2022-10-16T07:17:07;99817.09;;;13.97;100.00
48796;BME280;34607;48.520;-1.330;2022-10-16T07:19:34;99811.91;;;13.91;100.00
48796;BME280;34607;48.520;-1.330;2022-10-16T07:22:01;99809.31;;;13.89;100.00
48796;BME280;34607;48.520;-1.330;2022-10-16T07:24:30;99813.59;;;13.98;100.00
48796;BME280;34607;48.520;-1.330;2022-10-16T07:26:57;99811.00;;;13.96;100.00
48796;BME280;34607;48.520;-1.330;2022-10-16T07:29:24;99819.69;;;13.97;100.00
48796;BME280;34607;48.520;-1.330;2022-10-16T07:31:51;99825.75;;;13.96;100.00
48796;BME280;34607;48.520;-1.330;2022-10-16T07:34:19;99836.16;;;13.97;100.00
48796;BME280;34607;48.520;-1.330;2022-10-16T07:36:48;99838.75;;;14.00;100.00
48796;BME280;34607;48.520;-1.330;2022-10-16T07:39:15;99845.72;;;13.98;100.00
48796;BME280;34607;48.520;-1.330;2022-10-16T07:41:44;99843.91;;;14.07;100.00
48796;BME280;34607;48.520;-1.330;2022-10-16T07:44:11;99858.66;;;14.09;100.00
48796;BME280;34607;48.520;-1.330;2022-10-16T07:46:38;99838.75;;;13.97;100.00
48796;BME280;34607;48.520;-1.330;2022-10-16T07:49:05;99837.00;;;13.99;100.00
48796;BME280;34607;48.520;-1.330;2022-10-16T07:51:32;99842.19;;;14.04;100.00
48796;BME280;34607;48.520;-1.330;2022-10-16T07:53:59;99844.81;;;14.04;100.00
48796;BME280;34607;48.520;-1.330;2022-10-16T07:56:27;99840.44;;;14.08;100.00
48796;BME280;34607;48.520;-1.330;2022-10-16T07:58:55;99841.28;;;14.10;100.00
48796;BME280;34607;48.520;-1.330;2022-10-16T08:01:23;99851.69;;;14.14;100.00
48796;BME280;34607;48.520;-1.330;2022-10-16T08:03:51;99850.78;;;14.15;100.00
48796;BME280;34607;48.520;-1.330;2022-10-16T08:06:20;99843.88;;;14.16;100.00
48796;BME280;34607;48.520;-1.330;2022-10-16T08:08:47;99849.03;;;14.20;100.00
48796;BME280;34607;48.520;-1.330;2022-10-16T08:11:14;99840.34;;;14.23;100.00
48796;BME280;34607;48.520;-1.330;2022-10-16T08:13:42;99860.22;;;14.33;100.00
48796;BME280;34607;48.520;-1.330;2022-10-16T08:16:11;99861.94;;;14.36;100.00
48796;BME280;34607;48.520;-1.330;2022-10-16T08:18:38;99859.38;;;14.34;100.00
48796;BME280;34607;48.520;-1.330;2022-10-16T08:21:07;99856.69;;;14.40;100.00
48796;BME280;34607;48.520;-1.330;2022-10-16T08:23:34;99847.13;;;14.41;100.00
48796;BME280;34607;48.520;-1.330;2022-10-16T08:26:03;99846.34;;;14.33;100.00
48796;BME280;34607;48.520;-1.330;2022-10-16T08:28:31;99856.78;;;14.31;100.00
48796;BME280;34607;48.520;-1.330;2022-10-16T08:31:06;99855.03;;;14.30;100.00
48796;BME280;34607;48.520;-1.330;2022-10-16T08:33:35;99846.38;;;14.31;100.00
48796;BME280;34607;48.520;-1.330;2022-10-16T08:36:03;99848.88;;;14.43;100.00
48796;BME280;34607;48.520;-1.330;2022-10-16T08:38:30;99841.84;;;14.55;100.00
48796;BME280;34607;48.520;-1.330;2022-10-16T08:41:10;99843.56;;;14.59;100.00
48796;BME280;34607;48.520;-1.330;2022-10-16T08:43:55;99823.63;;;14.53;100.00
48796;BME280;34607;48.520;-1.330;2022-10-16T08:46:35;99845.13;;;14.77;100.00
48796;BME280;34607;48.520;-1.330;2022-10-16T08:49:11;99846.03;;;14.77;100.00
48796;BME280;34607;48.520;-1.330;2022-10-16T08:51:39;99853.84;;;14.79;100.00
48796;BME280;34607;48.520;-1.330;2022-10-16T08:54:18;99848.59;;;14.81;100.00
48796;BME280;34607;48.520;-1.330;2022-10-16T08:56:48;99844.25;;;14.81;100.00
48796;BME280;34607;48.520;-1.330;2022-10-16T08:59:16;99841.63;;;14.86;100.00
48796;BME280;34607;48.520;-1.330;2022-10-16T09:01:45;99844.16;;;14.90;100.00
48796;BME280;34607;48.520;-1.330;2022-10-16T09:07:20;99846.88;;;14.78;100.00
48796;BME280;34607;48.520;-1.330;2022-10-16T09:10:07;99848.50;;;14.93;100.00
48796;BME280;34607;48.520;-1.330;2022-10-16T09:12:41;99855.34;;;15.02;100.00
48796;BME280;34607;48.520;-1.330;2022-10-16T09:15:19;99851.75;;;15.13;100.00
48796;BME280;34607;48.520;-1.330;2022-10-16T09:17:55;99826.53;;;15.14;100.00
48796;BME280;34607;48.520;-1.330;2022-10-16T09:20:32;99834.31;;;15.19;100.00
48796;BME280;34607;48.520;-1.330;2022-10-16T09:23:14;99835.97;;;15.26;100.00
48796;BME280;34607;48.520;-1.330;2022-10-16T09:25:45;99830.63;;;15.35;100.00
48796;BME280;34607;48.520;-1.330;2022-10-16T09:28:13;99845.28;;;15.47;100.00
48796;BME280;34607;48.520;-1.330;2022-10-16T09:30:41;99834.16;;;15.32;100.00
48796;BME280;34607;48.520;-1.330;2022-10-16T09:33:09;99842.75;;;15.42;100.00
48796;BME280;34607;48.520;-1.330;2022-10-16T09:35:38;99843.63;;;15.43;100.00
48796;BME280;34607;48.520;-1.330;2022-10-16T09:38:07;99832.41;;;15.33;100.00
48796;BME280;34607;48.520;-1.330;2022-10-16T09:40:37;99840.06;;;15.47;100.00
48796;BME280;34607;48.520;-1.330;2022-10-16T09:43:17;99833.97;;;15.49;100.00
48796;BME280;34607;48.520;-1.330;2022-10-16T09:45:54;99821.78;;;15.50;100.00
48796;BME280;34607;48.520;-1.330;2022-10-16T09:48:22;99802.72;;;15.42;100.00
48796;BME280;34607;48.520;-1.330;2022-10-16T09:50:56;99820.81;;;15.57;100.00
48796;BME280;34607;48.520;-1.330;2022-10-16T09:53:23;99821.56;;;15.67;100.00
48796;BME280;34607;48.520;-1.330;2022-10-16T09:55:53;99822.34;;;15.73;100.00
48796;BME280;34607;48.520;-1.330;2022-10-16T09:58:22;99820.63;;;15.71;100.00
48796;BME280;34607;48.520;-1.330;2022-10-16T10:00:52;99806.69;;;15.73;100.00
48796;BME280;34607;48.520;-1.330;2022-10-16T10:03:35;99802.19;;;15.86;100.00
48796;BME280;34607;48.520;-1.330;2022-10-16T10:06:14;99792.66;;;15.84;100.00
48796;BME280;34607;48.520;-1.330;2022-10-16T10:08:57;99803.72;;;16.00;100.00
48796;BME280;34607;48.520;-1.330;2022-10-16T10:11:42;99802.06;;;15.96;100.00
48796;BME280;34607;48.520;-1.330;2022-10-16T10:14:25;99820.41;;;15.89;100.00
48796;BME280;34607;48.520;-1.330;2022-10-16T10:17:10;99824.00;;;15.82;100.00
48796;BME280;34607;48.520;-1.330;2022-10-16T10:19:38;99817.13;;;15.77;100.00
48796;BME280;34607;48.520;-1.330;2022-10-16T10:22:16;99830.19;;;15.72;100.00
48796;BME280;34607;48.520;-1.330;2022-10-16T10:24:44;99819.75;;;15.72;100.00
48796;BME280;34607;48.520;-1.330;2022-10-16T10:27:16;99825.69;;;15.85;100.00
48796;BME280;34607;48.520;-1.330;2022-10-16T10:29:53;99814.44;;;15.81;100.00
48796;BME280;34607;48.520;-1.330;2022-10-16T10:32:29;99815.22;;;15.86;100.00
48796;BME280;34607;48.520;-1.330;2022-10-16T10:35:11;99790.09;;;15.79;100.00
48796;BME280;34607;48.520;-1.330;2022-10-16T10:38:02;99787.44;;;15.84;100.00
48796;BME280;34607;48.520;-1.330;2022-10-16T10:40:42;99792.44;;;15.98;100.00
48796;BME280;34607;48.520;-1.330;2022-10-16T10:43:24;99794.03;;;16.09;100.00
48796;BME280;34607;48.520;-1.330;2022-10-16T10:45:59;99779.19;;;16.12;100.00
48796;BME280;34607;48.520;-1.330;2022-10-16T10:48:43;99793.00;;;16.20;100.00
48796;BME280;34607;48.520;-1.330;2022-10-16T10:51:21;99796.66;;;16.06;100.00
48796;BME280;34607;48.520;-1.330;2022-10-16T10:53:57;99815.75;;;16.10;100.00
48796;BME280;34607;48.520;-1.330;2022-10-16T10:56:42;99804.53;;;16.05;100.00
48796;BME280;34607;48.520;-1.330;2022-10-16T10:59:43;99805.47;;;16.01;100.00
48796;BME280;34607;48.520;-1.330;2022-10-16T11:02:22;99818.59;;;15.96;100.00
48796;BME280;34607;48.520;-1.330;2022-10-16T11:05:20;99827.47;;;15.81;100.00
48796;BME280;34607;48.520;-1.330;2022-10-16T11:07:51;99813.78;;;15.62;100.00
48796;BME280;34607;48.520;-1.330;2022-10-16T11:10:23;99812.06;;;15.63;100.00
48796;BME280;34607;48.520;-1.330;2022-10-16T11:12:55;99799.09;;;15.55;100.00
48796;BME280;34607;48.520;-1.330;2022-10-16T11:15:30;99800.06;;;15.48;100.00
48796;BME280;34607;48.520;-1.330;2022-10-16T11:18:03;99797.47;;;15.46;100.00
48796;BME280;34607;48.520;-1.330;2022-10-16T11:20:34;99778.63;;;15.23;100.00
48796;BME280;34607;48.520;-1.330;2022-10-16T11:23:10;99794.22;;;15.29;100.00
48796;BME280;34607;48.520;-1.330;2022-10-16T11:25:43;99797.78;;;15.22;100.00
48796;BME280;34607;48.520;-1.330;2022-10-16T11:28:13;99807.44;;;15.13;100.00
48796;BME280;34607;48.520;-1.330;2022-10-16T11:30:45;99798.84;;;15.02;100.00
48796;BME280;34607;48.520;-1.330;2022-10-16T11:33:21;99786.91;;;14.79;100.00
48796;BME280;34607;48.520;-1.330;2022-10-16T11:35:53;99791.28;;;14.81;100.00
48796;BME280;34607;48.520;-1.330;2022-10-16T11:38:26;99789.69;;;14.61;100.00
48796;BME280;34607;48.520;-1.330;2022-10-16T11:40:59;99785.38;;;14.60;100.00
48796;BME280;34607;48.520;-1.330;2022-10-16T11:43:31;99793.13;;;14.65;100.00
48796;BME280;34607;48.520;-1.330;2022-10-16T11:46:04;99786.31;;;14.48;100.00
48796;BME280;34607;48.520;-1.330;2022-10-16T11:48:39;99794.03;;;14.57;100.00
48796;BME280;34607;48.520;-1.330;2022-10-16T11:51:13;99806.22;;;14.55;100.00
48796;BME280;34607;48.520;-1.330;2022-10-16T11:53:46;99798.47;;;14.48;100.00
48796;BME280;34607;48.520;-1.330;2022-10-16T11:56:17;99799.34;;;14.48;100.00
48796;BME280;34607;48.520;-1.330;2022-10-16T11:58:52;99813.25;;;14.46;100.00
48796;BME280;34607;48.520;-1.330;2022-10-16T12:01:28;99815.03;;;14.39;100.00
48796;BME280;34607;48.520;-1.330;2022-10-16T12:04:04;99795.03;;;14.42;100.00
48796;BME280;34607;48.520;-1.330;2022-10-16T12:06:36;99764.75;;;14.31;100.00
48796;BME280;34607;48.520;-1.330;2022-10-16T12:09:05;99792.44;;;14.42;100.00
48796;BME280;34607;48.520;-1.330;2022-10-16T12:11:40;99775.91;;;14.50;100.00
48796;BME280;34607;48.520;-1.330;2022-10-16T12:14:22;99761.94;;;14.57;100.00
48796;BME280;34607;48.520;-1.330;2022-10-16T12:17:02;99755.00;;;14.51;100.00
48796;BME280;34607;48.520;-1.330;2022-10-16T12:19:32;99734.25;;;14.42;100.00
48796;BME280;34607;48.520;-1.330;2022-10-16T12:22:01;99735.06;;;14.49;100.00
48796;BME280;34607;48.520;-1.330;2022-10-16T12:24:34;99735.09;;;14.47;100.00
48796;BME280;34607;48.520;-1.330;2022-10-16T12:27:04;99732.47;;;14.49;100.00
48796;BME280;34607;48.520;-1.330;2022-10-16T12:29:35;99722.03;;;14.49;100.00
48796;BME280;34607;48.520;-1.330;2022-10-16T12:32:06;99680.47;;;14.39;100.00
48796;BME280;34607;48.520;-1.330;2022-10-16T12:34:48;99689.03;;;14.48;100.00
48796;BME280;34607;48.520;-1.330;2022-10-16T12:37:22;99686.41;;;14.52;100.00
48796;BME280;34607;48.520;-1.330;2022-10-16T12:39:51;99665.56;;;14.54;100.00
48796;BME280;34607;48.520;-1.330;2022-10-16T12:42:23;99644.69;;;14.57;100.00
48796;BME280;34607;48.520;-1.330;2022-10-16T12:44:50;99656.72;;;14.70;100.00
48796;BME280;34607;48.520;-1.330;2022-10-16T12:47:34;99660.06;;;14.78;100.00
48796;BME280;34607;48.520;-1.330;2022-10-16T12:50:03;99647.94;;;14.79;100.00
48796;BME280;34607;48.520;-1.330;2022-10-16T12:52:36;99653.84;;;14.92;100.00
48796;BME280;34607;48.520;-1.330;2022-10-16T12:55:09;99652.16;;;14.88;100.00
48796;BME280;34607;48.520;-1.330;2022-10-16T12:58:00;99662.47;;;14.95;100.00
48796;BME280;34607;48.520;-1.330;2022-10-16T13:00:39;99671.13;;;14.97;100.00